LESA/SLM METAR and TAF weather

Enter ICAO airport designator
Station Type Date Time Source
LESA METAR 2021/09/24 06:00 UTC NOAA

LESA 240600Z 06004KT 8000 -RA TS SCT030CB BKN040 14/14 Q1016 RERA


Station Type Date Time Source
LESA Decoded METAR 2021/09/24 06:00 UTC NOAA

Salamanca / Matacan, Spain (LESA) 40-57N 005-30W 795M
Sep 24, 2021 - 02:00 AM EDT / 2021.09.24 0600 UTC
Wind: from the ENE (060 degrees) at 5 MPH (4 KT):0
Visibility: 4 mile(s):0
Sky conditions: mostly cloudy
Weather: light rain; thunder; Cumulonimbus clouds observed
Temperature: 57 F (14 C)
Dew Point: 57 F (14 C)
Relative Humidity: 100%
Pressure (altimeter): 30.00 in. Hg (1016 hPa)
ob: LESA 240600Z 06004KT 8000 -RA TS SCT030CB BKN040 14/14 Q1016 RERA
cycle: 6

Station Type Date Time Source
LESA TAF 2021/09/24 05:18 UTC NOAA

TAF
AMD TAF
AMD LESA 240513Z 2405/2503 VRB05KT 9999 SCT030 TX23/2415Z TN12/2407Z
TEMPO 2405/2418 RA SHRA SCT030TCU
TEMPO 2405/2415 3000 TSRA SCT025CB PROB30
TEMPO 2405/2409 10010KT BKN010 PROB40
TEMPO 2412/2418 20010KT

Example: see airport list